createdAt,value
2022-10-24T00:00:10.036Z,6.21
2022-10-24T00:01:14.530Z,6.21
2022-10-24T00:02:17.215Z,6.21
2022-10-24T00:03:20.969Z,6.22
2022-10-24T00:04:23.727Z,6.23
2022-10-24T00:05:27.840Z,6.24
2022-10-24T00:06:31.929Z,6.25
2022-10-24T00:07:35.637Z,6.28
2022-10-24T00:08:39.367Z,6.30
2022-10-24T00:09:43.138Z,6.33
2022-10-24T00:10:47.790Z,6.34
2022-10-24T00:11:51.571Z,6.34
2022-10-24T00:12:55.091Z,6.34
2022-10-24T00:13:59.800Z,6.35
2022-10-24T00:15:02.593Z,6.37
2022-10-24T00:16:06.924Z,6.37
2022-10-24T00:17:09.733Z,6.39
2022-10-24T00:18:13.618Z,6.37
2022-10-24T00:19:16.379Z,6.37
2022-10-24T00:20:20.232Z,6.35
2022-10-24T00:21:23.117Z,6.35
2022-10-24T00:22:28.489Z,6.37
2022-10-24T00:23:31.294Z,6.38
2022-10-24T00:24:35.028Z,6.40
2022-10-24T00:25:37.810Z,6.44
2022-10-24T00:26:41.637Z,6.45
2022-10-24T00:27:44.450Z,6.48
2022-10-24T00:28:48.201Z,6.49
2022-10-24T00:29:50.989Z,6.50
2022-10-24T00:30:54.929Z,6.50
2022-10-24T00:31:57.626Z,6.51
2022-10-24T00:33:01.345Z,6.51
2022-10-24T00:34:04.546Z,6.50
2022-10-24T00:35:09.052Z,6.47
2022-10-24T00:36:12.909Z,6.46
2022-10-24T00:37:16.692Z,6.45
2022-10-24T00:38:20.836Z,6.45
2022-10-24T00:39:24.527Z,6.46
2022-10-24T00:40:27.228Z,6.46
2022-10-24T00:41:33.697Z,6.47
2022-10-24T00:42:36.997Z,6.49
2022-10-24T00:43:40.777Z,6.51
2022-10-24T00:44:43.767Z,6.53
2022-10-24T00:45:50.859Z,6.56
2022-10-24T00:46:55.808Z,6.57
2022-10-24T00:47:59.599Z,6.58
2022-10-24T00:49:02.360Z,6.60
2022-10-24T00:50:13.680Z,6.61
2022-10-24T00:51:21.876Z,6.60
2022-10-24T00:52:28.647Z,6.60
2022-10-24T00:53:33.746Z,6.60
2022-10-24T00:54:39.204Z,6.61
2022-10-24T00:55:43.278Z,6.61
2022-10-24T00:56:51.258Z,6.62
2022-10-24T00:57:55.407Z,6.62
2022-10-24T00:59:00.209Z,6.63
2022-10-24T01:00:09.187Z,6.63
2022-10-24T01:01:13.811Z,6.65
2022-10-24T01:02:16.615Z,6.67
2022-10-24T01:03:20.507Z,6.70
2022-10-24T01:04:23.248Z,6.72
2022-10-24T01:05:31.448Z,6.74
2022-10-24T01:06:45.927Z,6.74
2022-10-24T01:07:56.857Z,6.71
2022-10-24T01:09:10.016Z,6.67
2022-10-24T01:10:24.184Z,6.64
2022-10-24T01:11:40.714Z,6.63
2022-10-24T01:12:50.997Z,6.62
2022-10-24T01:13:59.168Z,6.62
2022-10-24T01:15:09.924Z,6.64
2022-10-24T01:16:15.717Z,6.63
2022-10-24T01:17:25.699Z,6.66
2022-10-24T01:18:31.558Z,6.69
2022-10-24T01:20:09.367Z,6.72
2022-10-24T01:21:25.066Z,6.75
2022-10-24T01:22:33.521Z,6.78
2022-10-24T01:23:58.569Z,6.81
2022-10-24T01:25:14.880Z,6.80
2022-10-24T01:26:33.969Z,6.79
2022-10-24T01:27:58.066Z,6.78
2022-10-24T01:29:08.013Z,6.78
2022-10-24T01:30:14.753Z,6.77
2022-10-24T01:31:21.269Z,6.76
2022-10-24T01:32:36.199Z,6.72
2022-10-24T01:33:41.209Z,6.68
2022-10-24T01:34:47.221Z,6.66
2022-10-24T01:36:10.120Z,6.62
2022-10-24T01:37:17.751Z,6.58
2022-10-24T01:38:25.702Z,6.53
2022-10-24T01:39:31.804Z,6.47
2022-10-24T01:40:38.269Z,6.42
2022-10-24T01:41:42.393Z,6.40
2022-10-24T01:42:46.701Z,6.37
2022-10-24T01:45:02.261Z,6.30
2022-10-24T01:46:20.338Z,6.28
2022-10-24T01:47:25.329Z,6.24
2022-10-24T01:48:30.740Z,6.22
2022-10-24T01:49:36.060Z,6.21
2022-10-24T01:50:40.800Z,6.20
2022-10-24T01:51:43.701Z,6.20
2022-10-24T01:52:48.480Z,6.21
2022-10-24T01:53:53.037Z,6.19
2022-10-24T01:54:55.730Z,6.16
2022-10-24T01:55:59.961Z,6.14
2022-10-24T01:57:02.963Z,6.11
2022-10-24T01:58:08.003Z,6.10
2022-10-24T01:59:40.271Z,6.10
2022-10-24T02:00:44.942Z,6.09
2022-10-24T02:01:49.224Z,6.10
2022-10-24T02:02:55.540Z,6.11
2022-10-24T02:03:58.912Z,6.11
2022-10-24T02:05:05.851Z,6.11
2022-10-24T02:06:11.832Z,6.10
2022-10-24T02:07:14.801Z,6.10
2022-10-24T02:08:21.200Z,6.11
2022-10-24T02:09:24.860Z,6.12
2022-10-24T02:10:31.138Z,6.11
2022-10-24T02:11:34.963Z,6.09
2022-10-24T02:12:40.100Z,6.07
2022-10-24T02:13:46.587Z,6.06
2022-10-24T02:14:52.101Z,6.05
2022-10-24T02:15:57.439Z,6.06
2022-10-24T02:17:04.329Z,6.09
2022-10-24T02:18:07.318Z,6.10
2022-10-24T02:19:11.251Z,6.09
2022-10-24T02:20:14.401Z,6.09
2022-10-24T02:21:23.457Z,6.10
2022-10-24T02:22:29.550Z,6.11
2022-10-24T02:23:38.369Z,6.14
2022-10-24T02:24:43.370Z,6.17
2022-10-24T02:25:49.492Z,6.21
2022-10-24T02:26:55.022Z,6.24
2022-10-24T02:28:02.511Z,6.29
2022-10-24T02:29:07.983Z,6.34
2022-10-24T02:30:15.018Z,6.35
2022-10-24T02:31:42.380Z,6.37
2022-10-24T02:32:48.052Z,6.35
2022-10-24T02:33:53.340Z,6.36
2022-10-24T02:34:56.138Z,6.38
2022-10-24T02:36:00.362Z,6.39
2022-10-24T02:37:03.782Z,6.39
2022-10-24T02:38:11.953Z,6.42
2022-10-24T02:39:15.122Z,6.41
2022-10-24T02:40:20.960Z,6.43
2022-10-24T02:41:26.680Z,6.43
2022-10-24T02:42:31.727Z,6.42
2022-10-24T02:43:34.832Z,6.41
2022-10-24T02:44:38.803Z,6.40
2022-10-24T02:45:41.557Z,6.42
2022-10-24T02:46:47.360Z,6.44
2022-10-24T02:47:53.548Z,6.43
2022-10-24T02:48:59.980Z,6.40
2022-10-24T02:50:02.694Z,6.39
2022-10-24T02:51:07.289Z,6.40
2022-10-24T02:52:10.050Z,6.41
2022-10-24T02:53:15.491Z,6.42
2022-10-24T02:54:18.337Z,6.43
2022-10-24T02:55:22.155Z,6.45
2022-10-24T02:56:24.988Z,6.47
2022-10-24T02:57:28.809Z,6.49
2022-10-24T02:58:31.572Z,6.51
2022-10-24T02:59:35.438Z,6.53
2022-10-24T03:00:38.356Z,6.58
2022-10-24T03:01:42.136Z,6.60
2022-10-24T03:02:45.279Z,6.63
2022-10-24T03:03:50.867Z,6.67
2022-10-24T03:04:53.654Z,6.72
2022-10-24T03:05:57.331Z,6.78
2022-10-24T03:07:00.083Z,6.84
2022-10-24T03:08:03.856Z,6.91
2022-10-24T03:09:06.621Z,6.98
2022-10-24T03:10:10.878Z,7.01
2022-10-24T03:11:13.570Z,7.07
2022-10-24T03:12:17.940Z,7.10
2022-10-24T03:13:20.650Z,7.11
2022-10-24T03:14:24.509Z,7.13
2022-10-24T03:15:27.250Z,7.14
2022-10-24T03:16:30.949Z,7.16
2022-10-24T03:17:33.698Z,7.17
2022-10-24T03:18:37.465Z,7.21
2022-10-24T03:19:41.547Z,7.24
2022-10-24T03:20:45.332Z,7.26
2022-10-24T03:21:48.110Z,7.28
2022-10-24T03:22:52.321Z,7.30
2022-10-24T03:23:55.154Z,7.32
2022-10-24T03:25:02.023Z,7.35
2022-10-24T03:26:04.741Z,7.36
2022-10-24T03:27:09.031Z,7.39
2022-10-24T03:28:11.842Z,7.42
2022-10-24T03:29:15.537Z,7.44
2022-10-24T03:30:19.351Z,7.47
2022-10-24T03:31:22.061Z,7.49
2022-10-24T03:33:29.561Z,7.53
2022-10-24T03:34:33.390Z,7.56
2022-10-24T03:35:37.650Z,7.59
2022-10-24T03:36:41.518Z,7.61
2022-10-24T03:37:44.380Z,7.61
2022-10-24T03:38:48.070Z,7.61
2022-10-24T03:39:50.826Z,7.64
2022-10-24T03:40:54.760Z,7.68
2022-10-24T03:41:57.439Z,7.70
2022-10-24T03:43:01.348Z,7.73
2022-10-24T03:44:04.111Z,7.77
2022-10-24T03:45:09.162Z,7.80
2022-10-24T03:46:11.869Z,7.83
2022-10-24T03:47:15.787Z,7.87
2022-10-24T03:48:19.219Z,7.88
2022-10-24T03:49:23.172Z,7.91
2022-10-24T03:50:26.191Z,7.92
2022-10-24T03:51:31.363Z,7.94
2022-10-24T03:52:35.232Z,7.95
2022-10-24T03:53:38.169Z,7.98
2022-10-24T03:54:41.948Z,8.02
2022-10-24T03:55:44.693Z,8.05
2022-10-24T03:56:49.620Z,8.07
2022-10-24T03:57:52.667Z,8.09
2022-10-24T03:58:56.449Z,8.10
2022-10-24T03:59:59.412Z,8.13
2022-10-24T04:01:03.734Z,8.14
2022-10-24T04:02:06.672Z,8.16
2022-10-24T04:03:11.018Z,8.17
2022-10-24T04:04:13.700Z,8.17
2022-10-24T04:05:17.559Z,8.18
2022-10-24T04:06:20.278Z,8.20
2022-10-24T04:07:25.501Z,8.22
2022-10-24T04:08:28.167Z,8.22
2022-10-24T04:09:32.020Z,8.23
2022-10-24T04:10:34.767Z,8.23
2022-10-24T04:11:38.557Z,8.24
2022-10-24T04:12:41.249Z,8.26
2022-10-24T04:13:45.008Z,8.27
2022-10-24T04:14:47.672Z,8.27
2022-10-24T04:15:51.441Z,8.27
2022-10-24T04:16:54.169Z,8.26
2022-10-24T04:17:57.910Z,8.25
2022-10-24T04:19:00.729Z,8.23
2022-10-24T04:20:04.713Z,8.22
2022-10-24T04:21:08.411Z,8.21
2022-10-24T04:22:11.209Z,8.18
2022-10-24T04:23:16.426Z,8.17
2022-10-24T04:24:20.229Z,8.15
2022-10-24T04:25:23.112Z,8.12
2022-10-24T04:26:27.159Z,8.12
2022-10-24T04:27:29.801Z,8.10
2022-10-24T04:28:33.740Z,8.11
2022-10-24T04:29:36.573Z,8.10
2022-10-24T04:30:40.434Z,8.10
2022-10-24T04:31:43.201Z,8.12
2022-10-24T04:32:47.223Z,8.13
2022-10-24T04:33:50.276Z,8.12
2022-10-24T04:34:54.096Z,8.13
2022-10-24T04:35:56.761Z,8.15
2022-10-24T04:37:00.560Z,8.17
2022-10-24T04:38:03.372Z,8.19
2022-10-24T04:39:08.763Z,8.21
2022-10-24T04:40:12.251Z,8.23
2022-10-24T04:41:16.089Z,8.24
2022-10-24T04:42:18.922Z,8.25
2022-10-24T04:43:23.394Z,8.27
2022-10-24T04:44:26.130Z,8.30
2022-10-24T04:45:29.891Z,8.34
2022-10-24T04:46:32.840Z,8.33
2022-10-24T04:47:36.820Z,8.38
2022-10-24T04:48:39.564Z,8.39
2022-10-24T04:49:43.415Z,8.40
2022-10-24T04:50:47.423Z,8.44
2022-10-24T04:51:51.246Z,8.44
2022-10-24T04:52:54.089Z,8.46
2022-10-24T04:53:57.831Z,8.48
2022-10-24T04:55:02.064Z,8.49
2022-10-24T04:56:06.363Z,8.51
2022-10-24T04:57:08.978Z,8.52
2022-10-24T04:58:12.710Z,8.54
2022-10-24T04:59:15.408Z,8.54
2022-10-24T05:00:19.399Z,8.56
2022-10-24T05:01:22.253Z,8.56
2022-10-24T05:02:26.161Z,8.57
2022-10-24T05:03:28.880Z,8.58
2022-10-24T05:04:32.767Z,8.60
2022-10-24T05:05:35.501Z,8.61
2022-10-24T05:06:44.215Z,8.59
2022-10-24T05:07:47.925Z,8.60
2022-10-24T05:08:51.708Z,8.63
2022-10-24T05:09:54.491Z,8.65
2022-10-24T05:10:59.587Z,8.65
2022-10-24T05:12:03.450Z,8.66
2022-10-24T05:13:06.149Z,8.66
2022-10-24T05:14:09.876Z,8.66
2022-10-24T05:15:14.448Z,8.65
2022-10-24T05:16:18.230Z,8.66
2022-10-24T05:17:20.986Z,8.67
2022-10-24T05:18:24.779Z,8.69
2022-10-24T05:19:27.522Z,8.71
2022-10-24T05:20:31.371Z,8.72
2022-10-24T05:21:34.311Z,8.73
2022-10-24T05:22:38.070Z,8.74
2022-10-24T05:23:42.011Z,8.75
2022-10-24T05:24:44.781Z,8.74
2022-10-24T05:25:48.580Z,8.75
2022-10-24T05:26:52.715Z,8.75
2022-10-24T05:27:56.489Z,8.76
2022-10-24T05:28:59.281Z,8.76
2022-10-24T05:30:03.191Z,8.76
2022-10-24T05:31:05.918Z,8.76
2022-10-24T05:32:09.732Z,8.76
2022-10-24T05:33:12.729Z,8.75
2022-10-24T05:34:16.492Z,8.73
2022-10-24T05:35:19.257Z,8.71
2022-10-24T05:36:23.197Z,8.71
2022-10-24T05:37:25.931Z,8.71
2022-10-24T05:38:29.832Z,8.69
2022-10-24T05:39:32.590Z,8.70
2022-10-24T05:40:36.392Z,8.69
2022-10-24T05:41:41.135Z,8.71
2022-10-24T05:42:48.976Z,8.70
2022-10-24T05:43:51.836Z,8.71
2022-10-24T05:44:55.580Z,8.71
2022-10-24T05:45:59.470Z,8.73
2022-10-24T05:47:02.081Z,8.73
2022-10-24T05:48:06.541Z,8.74
2022-10-24T05:49:09.240Z,8.75
2022-10-24T05:50:13.083Z,8.77
2022-10-24T05:51:15.821Z,8.80
2022-10-24T05:52:19.612Z,8.82
2022-10-24T05:53:22.249Z,8.83
2022-10-24T05:54:30.298Z,8.85
2022-10-24T05:55:41.671Z,8.87
2022-10-24T05:56:44.361Z,8.89
2022-10-24T05:57:49.618Z,8.91
2022-10-24T05:58:53.478Z,8.92
2022-10-24T05:59:56.212Z,8.98
2022-10-24T06:01:00.108Z,9.00
2022-10-24T06:02:03.315Z,9.05
2022-10-24T06:03:07.079Z,9.09
2022-10-24T06:04:12.891Z,9.13
2022-10-24T06:05:17.701Z,9.18
2022-10-24T06:06:20.427Z,9.22
2022-10-24T06:07:24.335Z,9.26
2022-10-24T06:08:27.221Z,9.30
2022-10-24T06:09:31.092Z,9.36
2022-10-24T06:10:34.118Z,9.41
2022-10-24T06:11:37.969Z,9.45
2022-10-24T06:12:42.196Z,9.52
2022-10-24T06:13:47.430Z,9.57
2022-10-24T06:14:50.279Z,9.64
2022-10-24T06:15:54.231Z,9.72
2022-10-24T06:16:56.892Z,9.80
2022-10-24T06:18:00.643Z,9.87
2022-10-24T06:19:03.555Z,9.95
2022-10-24T06:20:08.184Z,10.00
2022-10-24T06:21:13.632Z,10.07
2022-10-24T06:22:17.373Z,10.13
2022-10-24T06:23:20.303Z,10.21
2022-10-24T06:24:24.213Z,10.30
2022-10-24T06:25:28.151Z,10.41
2022-10-24T06:26:30.980Z,10.49
2022-10-24T06:27:34.800Z,10.57
2022-10-24T06:28:37.642Z,10.69
2022-10-24T06:29:43.022Z,10.78
2022-10-24T06:30:48.406Z,10.85
2022-10-24T06:31:52.231Z,10.93
2022-10-24T06:32:55.186Z,11.02
2022-10-24T06:33:58.962Z,11.07
2022-10-24T06:35:02.482Z,11.12
2022-10-24T06:36:09.558Z,11.17
2022-10-24T06:37:12.310Z,11.24
2022-10-24T06:38:16.081Z,11.31
2022-10-24T06:39:18.785Z,11.42
2022-10-24T06:40:22.672Z,11.51
2022-10-24T06:41:25.382Z,11.61
2022-10-24T06:42:29.050Z,11.74
2022-10-24T06:43:32.521Z,11.89
2022-10-24T06:44:36.832Z,12.02
2022-10-24T06:45:40.909Z,12.13
2022-10-24T06:46:45.461Z,12.21
2022-10-24T06:47:51.827Z,12.31
2022-10-24T06:48:57.912Z,12.41
2022-10-24T06:50:01.675Z,12.50
2022-10-24T06:51:04.776Z,12.64
2022-10-24T06:52:08.530Z,12.81
2022-10-24T06:53:11.347Z,12.95
2022-10-24T06:54:15.182Z,13.06
2022-10-24T06:55:17.950Z,13.18
2022-10-24T06:56:21.756Z,13.32
2022-10-24T06:57:24.580Z,13.46
2022-10-24T06:58:29.729Z,13.61
2022-10-24T06:59:32.503Z,13.71
2022-10-24T07:00:36.331Z,13.86
2022-10-24T07:01:41.642Z,13.96
2022-10-24T07:02:44.677Z,14.11
2022-10-24T07:03:49.176Z,14.29
2022-10-24T07:04:52.956Z,14.40
2022-10-24T07:05:56.060Z,14.48
2022-10-24T07:06:59.834Z,14.52
2022-10-24T07:08:02.651Z,14.54
2022-10-24T07:09:10.297Z,14.57
2022-10-24T07:10:16.778Z,14.62
2022-10-24T07:11:19.856Z,14.69
2022-10-24T07:12:23.982Z,14.80
2022-10-24T07:13:26.649Z,14.93
2022-10-24T07:14:30.561Z,15.06
2022-10-24T07:15:33.231Z,15.23
2022-10-24T07:16:37.220Z,15.35
2022-10-24T07:17:43.519Z,15.45
2022-10-24T07:18:46.499Z,15.54
2022-10-24T07:19:54.252Z,15.58
2022-10-24T07:21:03.024Z,15.62
2022-10-24T07:22:07.221Z,15.64
2022-10-24T07:23:09.927Z,15.66
2022-10-24T07:24:13.805Z,15.67
2022-10-24T07:25:16.998Z,15.70
2022-10-24T07:26:22.547Z,15.73
2022-10-24T07:27:26.359Z,15.76
2022-10-24T07:28:28.990Z,15.80
2022-10-24T07:29:32.751Z,15.85
2022-10-24T07:30:35.460Z,15.89
2022-10-24T07:31:39.159Z,15.92
2022-10-24T07:32:43.652Z,15.96
2022-10-24T07:33:47.549Z,15.99
2022-10-24T07:34:51.236Z,16.01
2022-10-24T07:35:54.047Z,16.03
2022-10-24T07:36:57.717Z,16.07
2022-10-24T07:38:00.342Z,16.11
2022-10-24T07:39:04.149Z,16.16
2022-10-24T07:40:08.991Z,16.19
2022-10-24T07:41:14.934Z,16.23
2022-10-24T07:42:19.019Z,16.24
2022-10-24T07:43:22.869Z,16.26
2022-10-24T07:44:26.646Z,16.32
2022-10-24T07:45:30.121Z,16.37
2022-10-24T07:46:33.820Z,16.44
2022-10-24T07:47:36.478Z,16.51
2022-10-24T07:48:42.699Z,16.58
2022-10-24T07:49:46.412Z,16.65
2022-10-24T07:50:49.639Z,16.69
2022-10-24T07:51:53.328Z,16.72
2022-10-24T07:52:57.449Z,16.74
2022-10-24T07:54:00.442Z,16.75
2022-10-24T07:55:05.491Z,16.77
2022-10-24T07:56:10.779Z,16.83
2022-10-24T07:57:13.468Z,16.91
2022-10-24T07:58:17.181Z,16.99
2022-10-24T07:59:40.786Z,17.07
2022-10-24T08:00:45.534Z,17.18
2022-10-24T08:01:48.560Z,17.27
2022-10-24T08:02:52.554Z,17.38
2022-10-24T08:03:58.282Z,17.49
2022-10-24T08:05:01.954Z,17.60
2022-10-24T08:06:06.202Z,17.70
2022-10-24T08:07:13.738Z,17.79
2022-10-24T08:08:35.090Z,17.84
2022-10-24T08:09:40.069Z,17.89
2022-10-24T08:10:42.702Z,17.93
2022-10-24T08:11:46.440Z,17.99
2022-10-24T08:12:49.127Z,18.04
2022-10-24T08:13:53.861Z,18.11
2022-10-24T08:14:58.461Z,18.17
2022-10-24T08:16:02.917Z,18.21
2022-10-24T08:17:06.059Z,18.27
2022-10-24T08:18:09.851Z,18.35
2022-10-24T08:19:15.393Z,18.44
2022-10-24T08:20:19.229Z,18.55
2022-10-24T08:21:24.212Z,18.64
2022-10-24T08:22:27.933Z,18.71
2022-10-24T08:23:30.642Z,18.75
2022-10-24T08:24:34.320Z,18.79
2022-10-24T08:25:40.356Z,18.82
2022-10-24T08:26:44.108Z,18.83
2022-10-24T08:27:47.826Z,18.85
2022-10-24T08:28:50.909Z,18.82
2022-10-24T08:29:54.761Z,18.77
2022-10-24T08:30:58.819Z,18.69
2022-10-24T08:32:02.520Z,18.64
2022-10-24T08:33:05.220Z,18.59
2022-10-24T08:34:08.918Z,18.54
2022-10-24T08:35:16.669Z,18.52
2022-10-24T08:36:22.556Z,18.50
2022-10-24T08:37:26.544Z,18.48
2022-10-24T08:38:30.410Z,18.49
2022-10-24T08:39:41.920Z,18.48
2022-10-24T08:40:49.249Z,18.47
2022-10-24T08:41:59.281Z,18.47
2022-10-24T08:43:04.601Z,18.49
2022-10-24T08:44:16.286Z,18.49
2022-10-24T08:45:25.121Z,18.49
2022-10-24T08:46:38.037Z,18.47
2022-10-24T08:47:44.949Z,18.45
2022-10-24T08:48:54.342Z,18.43
2022-10-24T08:50:06.069Z,18.44
2022-10-24T08:51:19.521Z,18.45
2022-10-24T08:52:29.691Z,18.44
2022-10-24T08:53:34.477Z,18.46
2022-10-24T08:54:41.782Z,18.48
2022-10-24T08:55:50.288Z,18.53
2022-10-24T08:56:58.131Z,18.54
2022-10-24T08:58:02.872Z,18.57
2022-10-24T08:59:07.282Z,18.59
2022-10-24T09:00:18.640Z,18.62
2022-10-24T09:01:31.256Z,18.66
2022-10-24T09:02:39.926Z,18.72
2022-10-24T09:04:01.330Z,18.82
2022-10-24T09:05:20.001Z,18.90
2022-10-24T09:06:27.204Z,18.95
2022-10-24T09:07:31.260Z,19.02
2022-10-24T09:08:39.101Z,19.09
2022-10-24T09:09:46.982Z,19.16
2022-10-24T09:10:55.983Z,19.21
2022-10-24T09:12:01.994Z,19.24
2022-10-24T09:13:12.304Z,19.27
2022-10-24T09:14:18.041Z,19.29
2022-10-24T09:15:26.720Z,19.28
2022-10-24T09:16:31.039Z,19.23
2022-10-24T09:17:37.400Z,19.16
2022-10-24T09:18:42.673Z,19.10
2022-10-24T09:19:50.767Z,19.05
2022-10-24T09:20:55.781Z,19.00
2022-10-24T09:22:01.854Z,18.96
2022-10-24T09:23:05.932Z,18.94
2022-10-24T09:24:17.633Z,18.93
2022-10-24T09:25:24.253Z,18.94
2022-10-24T09:26:29.454Z,18.96
2022-10-24T09:27:35.161Z,19.02
2022-10-24T09:28:40.239Z,19.09
2022-10-24T09:29:43.117Z,19.15
2022-10-24T09:30:47.356Z,19.21
2022-10-24T09:31:50.113Z,19.26
2022-10-24T09:32:54.401Z,19.33
2022-10-24T09:34:00.638Z,19.38
2022-10-24T09:35:07.763Z,19.40
2022-10-24T09:36:12.770Z,19.40
2022-10-24T09:37:43.989Z,19.38
2022-10-24T09:38:50.208Z,19.32
2022-10-24T09:40:07.573Z,19.27
2022-10-24T09:41:18.541Z,19.20
2022-10-24T09:42:23.999Z,19.13
2022-10-24T09:43:33.509Z,19.07
2022-10-24T09:44:41.230Z,19.02
2022-10-24T09:45:47.280Z,18.97
2022-10-24T09:46:51.149Z,18.95
2022-10-24T09:47:57.004Z,18.96
2022-10-24T09:49:02.780Z,18.97
2022-10-24T09:50:06.779Z,18.98
2022-10-24T09:51:10.551Z,18.99
2022-10-24T09:52:20.707Z,18.99
2022-10-24T09:53:30.641Z,19.00
2022-10-24T09:54:35.494Z,19.03
2022-10-24T09:55:45.762Z,19.03
2022-10-24T09:56:54.292Z,19.03
2022-10-24T09:58:04.223Z,19.04
2022-10-24T09:59:28.061Z,19.08
2022-10-24T10:00:33.749Z,19.10
2022-10-24T10:01:38.387Z,19.15
2022-10-24T10:02:58.469Z,19.20
2022-10-24T10:04:07.570Z,19.23
2022-10-24T10:05:22.829Z,19.25
2022-10-24T10:06:25.548Z,19.28
2022-10-24T10:07:30.390Z,19.31
2022-10-24T10:08:37.172Z,19.36
2022-10-24T10:09:51.605Z,19.45
2022-10-24T10:11:04.960Z,19.52
2022-10-24T10:12:13.911Z,19.60
2022-10-24T10:13:24.500Z,19.68
2022-10-24T10:14:30.381Z,19.73
2022-10-24T10:15:36.389Z,19.76
2022-10-24T10:16:40.822Z,19.77
2022-10-24T10:17:51.080Z,19.77
2022-10-24T10:19:03.496Z,19.75
2022-10-24T10:20:06.813Z,19.69
2022-10-24T10:21:16.012Z,19.69
2022-10-24T10:22:25.890Z,19.70
2022-10-24T10:23:32.651Z,19.70
2022-10-24T10:24:42.421Z,19.69
2022-10-24T10:25:45.125Z,19.71
2022-10-24T10:26:48.858Z,19.72
2022-10-24T10:27:52.797Z,19.72
2022-10-24T10:29:02.448Z,19.77
2022-10-24T10:30:17.182Z,19.84
2022-10-24T10:31:22.836Z,19.87
2022-10-24T10:32:31.153Z,19.89
2022-10-24T10:34:48.299Z,19.90
2022-10-24T10:35:54.251Z,19.90
2022-10-24T10:37:18.962Z,19.89
2022-10-24T10:38:45.463Z,19.87
2022-10-24T10:40:15.982Z,19.85
2022-10-24T10:41:34.312Z,19.86
2022-10-24T10:42:43.094Z,19.90
2022-10-24T10:43:54.935Z,19.93
2022-10-24T10:45:06.437Z,19.98
2022-10-24T10:46:17.928Z,20.03
2022-10-24T10:47:35.104Z,20.10
2022-10-24T10:48:49.871Z,20.16
2022-10-24T10:49:57.844Z,20.18
2022-10-24T10:51:08.159Z,20.21
2022-10-24T10:52:14.848Z,20.21
2022-10-24T10:53:34.951Z,20.23
2022-10-24T10:54:59.791Z,20.25
2022-10-24T10:56:10.379Z,20.27
2022-10-24T10:57:14.340Z,20.30
2022-10-24T10:58:27.327Z,20.36
2022-10-24T10:59:41.209Z,20.42
2022-10-24T11:00:48.718Z,20.46
2022-10-24T11:01:58.863Z,20.52
2022-10-24T11:03:17.172Z,20.62
2022-10-24T11:04:24.103Z,20.68
2022-10-24T11:05:40.536Z,20.78
2022-10-24T11:06:50.542Z,20.83
2022-10-24T11:08:01.595Z,20.92
2022-10-24T11:09:19.667Z,21.02
2022-10-24T11:10:27.801Z,21.10
2022-10-24T11:11:32.290Z,21.13
2022-10-24T11:12:38.461Z,21.17
2022-10-24T11:13:43.738Z,21.19
2022-10-24T11:14:50.151Z,21.24
2022-10-24T11:15:56.362Z,21.33
2022-10-24T11:17:05.169Z,21.45
2022-10-24T11:18:13.421Z,21.57
2022-10-24T11:19:23.867Z,21.70
2022-10-24T11:20:31.253Z,21.74
2022-10-24T11:21:36.278Z,21.77
2022-10-24T11:22:44.204Z,21.80
2022-10-24T11:23:50.773Z,21.83
2022-10-24T11:24:59.089Z,21.85
2022-10-24T11:26:07.685Z,21.84
2022-10-24T11:27:15.588Z,21.85
2022-10-24T11:28:24.284Z,21.87
2022-10-24T11:29:33.037Z,21.88
2022-10-24T11:30:47.710Z,21.90
2022-10-24T11:31:54.915Z,21.94
2022-10-24T11:33:00.120Z,21.95
2022-10-24T11:34:05.991Z,21.98
2022-10-24T11:35:20.114Z,21.96
2022-10-24T11:36:27.610Z,21.98
2022-10-24T11:37:33.919Z,21.98
2022-10-24T11:38:39.631Z,21.98
2022-10-24T11:39:46.497Z,21.97
2022-10-24T11:40:54.800Z,21.93
2022-10-24T11:42:06.572Z,21.90
2022-10-24T11:43:14.650Z,21.91
2022-10-24T11:44:28.760Z,21.89
2022-10-24T11:45:40.558Z,21.84
2022-10-24T11:46:45.292Z,21.84
2022-10-24T11:47:56.031Z,21.86
2022-10-24T11:49:03.859Z,21.87
2022-10-24T11:50:13.062Z,21.88
2022-10-24T11:51:21.565Z,21.85
2022-10-24T11:52:27.369Z,21.86
2022-10-24T11:53:54.048Z,21.88
2022-10-24T11:55:00.346Z,21.87
2022-10-24T11:56:07.120Z,21.87
2022-10-24T11:57:15.003Z,21.87
2022-10-24T11:58:21.975Z,21.89
2022-10-24T11:59:25.772Z,21.92
2022-10-24T12:00:31.542Z,21.94
2022-10-24T12:02:20.170Z,21.95
2022-10-24T12:03:53.435Z,21.90
2022-10-24T12:05:25.816Z,21.87
2022-10-24T12:06:43.270Z,21.86
2022-10-24T12:08:23.328Z,21.93
2022-10-24T12:09:56.751Z,21.94
2022-10-24T12:11:07.783Z,21.93
2022-10-24T12:12:23.543Z,21.96
2022-10-24T12:13:49.647Z,21.94
2022-10-24T12:15:02.509Z,21.93
2022-10-24T12:16:14.141Z,21.93
2022-10-24T12:17:37.476Z,21.92
2022-10-24T12:18:43.252Z,21.88
2022-10-24T12:19:46.490Z,21.82
2022-10-24T12:20:52.797Z,21.76
2022-10-24T12:21:58.201Z,21.72
2022-10-24T12:23:01.617Z,21.72
2022-10-24T12:24:06.328Z,21.74
2022-10-24T12:25:19.789Z,21.75
2022-10-24T12:26:28.157Z,21.77
2022-10-24T12:27:37.450Z,21.79
2022-10-24T12:28:41.643Z,21.82
2022-10-24T12:29:44.491Z,21.86
2022-10-24T12:31:10.500Z,21.98
2022-10-24T12:32:38.252Z,22.14
2022-10-24T12:33:42.482Z,22.18
2022-10-24T12:34:49.147Z,22.24
2022-10-24T12:35:56.680Z,22.30
2022-10-24T12:37:05.460Z,22.32
2022-10-24T12:38:17.991Z,22.31
2022-10-24T12:39:30.893Z,22.38
2022-10-24T12:40:56.667Z,22.48
2022-10-24T12:42:00.591Z,22.57
2022-10-24T12:43:16.246Z,22.75
2022-10-24T12:44:37.690Z,22.96
2022-10-24T12:45:41.618Z,23.11
2022-10-24T12:46:54.870Z,23.21
2022-10-24T12:48:36.112Z,23.34
2022-10-24T12:49:38.823Z,23.39
2022-10-24T12:51:30.064Z,23.45
2022-10-24T12:52:51.791Z,23.41
2022-10-24T12:54:04.615Z,23.32
2022-10-24T12:55:30.958Z,23.28
2022-10-24T12:56:35.641Z,23.25
2022-10-24T12:57:38.818Z,23.27
2022-10-24T12:58:45.020Z,23.29
2022-10-24T12:59:49.348Z,23.28
2022-10-24T13:00:56.680Z,23.29
2022-10-24T13:02:41.031Z,23.43
2022-10-24T13:03:59.711Z,23.49
2022-10-24T13:05:13.259Z,23.50
2022-10-24T13:06:22.838Z,23.35
2022-10-24T13:08:02.060Z,23.19
2022-10-24T13:09:17.255Z,23.19
2022-10-24T13:10:33.216Z,23.23
2022-10-24T13:11:54.256Z,23.35
2022-10-24T13:13:14.053Z,23.40
2022-10-24T13:14:32.281Z,23.42
2022-10-24T13:15:43.259Z,23.43
2022-10-24T13:16:59.092Z,23.36
2022-10-24T13:18:21.628Z,23.22
2022-10-24T13:19:25.474Z,23.03
2022-10-24T13:20:30.640Z,22.91
2022-10-24T13:22:46.586Z,22.49
2022-10-24T13:23:50.022Z,22.33
2022-10-24T13:24:53.911Z,22.21
2022-10-24T13:25:58.051Z,22.11
2022-10-24T13:27:32.182Z,21.98
2022-10-24T13:28:40.861Z,21.89
2022-10-24T13:30:24.476Z,21.77
2022-10-24T13:31:47.940Z,21.69
2022-10-24T13:32:51.865Z,21.62
2022-10-24T13:34:20.533Z,21.55
2022-10-24T13:35:26.420Z,21.48
2022-10-24T13:36:32.097Z,21.39
2022-10-24T13:37:39.561Z,21.29
2022-10-24T13:38:46.763Z,21.22
2022-10-24T13:39:52.869Z,21.13
2022-10-24T13:40:56.029Z,21.02
2022-10-24T13:42:02.087Z,20.89
2022-10-24T13:43:07.997Z,20.77
2022-10-24T13:44:23.175Z,20.65
2022-10-24T13:45:31.071Z,20.56
2022-10-24T13:47:52.282Z,20.40
2022-10-24T13:48:55.590Z,20.35
2022-10-24T13:50:00.860Z,20.29
2022-10-24T13:51:07.091Z,20.23
2022-10-24T13:52:17.440Z,20.20
2022-10-24T13:53:30.326Z,20.19
2022-10-24T13:54:36.562Z,20.16
2022-10-24T13:55:44.449Z,20.12
2022-10-24T13:56:47.755Z,20.09
2022-10-24T13:57:54.054Z,20.03
2022-10-24T13:58:57.802Z,19.98
2022-10-24T14:00:02.070Z,19.92
2022-10-24T14:01:19.477Z,19.85
2022-10-24T14:02:26.084Z,19.78
2022-10-24T14:03:33.318Z,19.70
2022-10-24T14:04:36.128Z,19.63
2022-10-24T14:05:42.230Z,19.56
2022-10-24T14:06:44.943Z,19.49
2022-10-24T14:07:49.321Z,19.42
2022-10-24T14:09:05.544Z,19.34
2022-10-24T14:10:14.144Z,19.25
2022-10-24T14:11:22.696Z,19.20
2022-10-24T14:12:29.380Z,19.17
2022-10-24T14:13:35.694Z,19.14
2022-10-24T14:14:41.361Z,19.13
2022-10-24T14:15:48.940Z,19.10
2022-10-24T14:17:05.862Z,19.09
2022-10-24T14:18:14.920Z,19.05
2022-10-24T14:19:29.597Z,19.05
2022-10-24T14:20:36.642Z,19.04
2022-10-24T14:21:41.630Z,19.07
2022-10-24T14:22:45.629Z,19.11
2022-10-24T14:23:55.999Z,19.09
2022-10-24T14:24:59.900Z,19.10
2022-10-24T14:26:07.149Z,19.11
2022-10-24T14:27:12.259Z,19.15
2022-10-24T14:28:17.401Z,19.18
2022-10-24T14:29:22.954Z,19.16
2022-10-24T14:30:34.281Z,19.12
2022-10-24T14:31:37.771Z,19.05
2022-10-24T14:32:43.190Z,18.98
2022-10-24T14:33:50.586Z,18.91
2022-10-24T14:34:54.700Z,18.82
2022-10-24T14:36:00.087Z,18.72
2022-10-24T14:37:06.953Z,18.64
2022-10-24T14:38:15.091Z,18.57
2022-10-24T14:39:23.884Z,18.49
2022-10-24T14:40:27.787Z,18.44